createdAt,value
2023-01-29T00:00:06.404Z,76.47
2023-01-29T00:00:16.738Z,76.57
2023-01-29T00:00:26.392Z,76.54
2023-01-29T00:00:36.399Z,76.47
2023-01-29T00:00:46.472Z,76.57
2023-01-29T00:00:56.477Z,76.61
2023-01-29T00:01:06.404Z,76.57
2023-01-29T00:01:16.380Z,76.54
2023-01-29T00:01:26.403Z,76.61
2023-01-29T00:01:36.455Z,76.57
2023-01-29T00:01:46.422Z,76.57
2023-01-29T00:01:56.442Z,76.68
2023-01-29T00:02:07.079Z,76.61
2023-01-29T00:02:16.520Z,76.47
2023-01-29T00:02:26.414Z,76.51
2023-01-29T00:02:36.426Z,76.61
2023-01-29T00:02:46.399Z,76.57
2023-01-29T00:02:56.413Z,76.57
2023-01-29T00:03:06.419Z,76.68
2023-01-29T00:03:16.454Z,76.79
2023-01-29T00:03:26.447Z,76.72
2023-01-29T00:03:36.420Z,76.61
2023-01-29T00:03:46.374Z,76.68
2023-01-29T00:03:56.391Z,76.57
2023-01-29T00:04:06.418Z,76.61
2023-01-29T00:04:16.372Z,76.51
2023-01-29T00:04:26.395Z,76.57
2023-01-29T00:04:36.423Z,76.57
2023-01-29T00:04:46.381Z,76.68
2023-01-29T00:04:59.063Z,76.68
2023-01-29T00:05:25.448Z,76.72
2023-01-29T00:05:27.546Z,76.72
2023-01-29T00:05:36.384Z,76.72
2023-01-29T00:05:46.375Z,76.68
2023-01-29T00:05:56.401Z,76.72
2023-01-29T00:06:06.362Z,76.93
2023-01-29T00:06:16.376Z,76.68
2023-01-29T00:06:27.036Z,76.82
2023-01-29T00:06:36.361Z,76.82
2023-01-29T00:06:46.391Z,76.72
2023-01-29T00:06:56.388Z,76.79
2023-01-29T00:07:06.364Z,76.68
2023-01-29T00:07:16.383Z,76.68
2023-01-29T00:07:26.360Z,76.72
2023-01-29T00:07:36.567Z,76.68
2023-01-29T00:07:46.398Z,76.61
2023-01-29T00:07:56.533Z,76.51
2023-01-29T00:08:06.363Z,76.61
2023-01-29T00:08:16.387Z,76.51
2023-01-29T00:08:26.365Z,76.54
2023-01-29T00:08:36.358Z,76.57
2023-01-29T00:08:46.385Z,76.61
2023-01-29T00:08:56.353Z,76.68
2023-01-29T00:09:06.371Z,76.82
2023-01-29T00:09:16.415Z,76.93
2023-01-29T00:09:26.428Z,76.89
2023-01-29T00:09:36.363Z,76.89
2023-01-29T00:09:46.400Z,77.03
2023-01-29T00:09:56.349Z,76.93
2023-01-29T00:10:06.371Z,77.00
2023-01-29T00:10:16.930Z,76.89
2023-01-29T00:10:20.921Z,76.72
2023-01-29T00:10:26.344Z,76.93
2023-01-29T00:10:36.388Z,77.03
2023-01-29T00:10:46.341Z,77.00
2023-01-29T00:10:56.351Z,76.93
2023-01-29T00:11:06.362Z,76.93
2023-01-29T00:11:16.353Z,76.93
2023-01-29T00:11:26.347Z,76.86
2023-01-29T00:11:36.474Z,76.82
2023-01-29T00:11:46.346Z,76.93
2023-01-29T00:11:56.358Z,76.93
2023-01-29T00:12:06.469Z,76.96
2023-01-29T00:12:16.344Z,76.86
2023-01-29T00:12:26.402Z,76.79
2023-01-29T00:12:36.353Z,76.93
2023-01-29T00:12:46.337Z,76.93
2023-01-29T00:12:56.373Z,76.82
2023-01-29T00:13:06.369Z,76.72
2023-01-29T00:13:16.351Z,76.82
2023-01-29T00:13:27.111Z,76.82
2023-01-29T00:13:36.396Z,76.82
2023-01-29T00:13:46.429Z,76.79
2023-01-29T00:13:56.374Z,76.93
2023-01-29T00:14:06.518Z,76.93
2023-01-29T00:14:16.466Z,76.93
2023-01-29T00:14:26.340Z,76.93
2023-01-29T00:14:36.389Z,77.03
2023-01-29T00:14:47.071Z,77.00
2023-01-29T00:14:56.346Z,77.03
2023-01-29T00:15:06.410Z,76.93
2023-01-29T00:15:16.333Z,76.93
2023-01-29T00:15:26.475Z,76.82
2023-01-29T00:15:36.323Z,76.79
2023-01-29T00:15:47.070Z,76.79
2023-01-29T00:15:56.359Z,76.89
2023-01-29T00:16:06.334Z,76.79
2023-01-29T00:16:16.397Z,76.93
2023-01-29T00:16:26.319Z,76.93
2023-01-29T00:16:36.433Z,76.79
2023-01-29T00:16:46.398Z,76.82
2023-01-29T00:16:56.349Z,76.65
2023-01-29T00:17:06.376Z,76.72
2023-01-29T00:17:16.447Z,76.57
2023-01-29T00:17:27.088Z,76.72
2023-01-29T00:17:37.040Z,76.68
2023-01-29T00:17:46.342Z,76.82
2023-01-29T00:17:56.315Z,76.82
2023-01-29T00:18:06.334Z,76.72
2023-01-29T00:18:16.349Z,76.61
2023-01-29T00:18:26.309Z,76.65
2023-01-29T00:18:36.326Z,76.61
2023-01-29T00:18:46.340Z,76.72
2023-01-29T00:18:56.306Z,76.72
2023-01-29T00:19:06.322Z,76.82
2023-01-29T00:19:16.303Z,76.93
2023-01-29T00:19:26.309Z,76.93
2023-01-29T00:19:37.057Z,77.00
2023-01-29T00:19:46.305Z,77.03
2023-01-29T00:19:56.311Z,77.03
2023-01-29T00:20:06.348Z,77.03
2023-01-29T00:20:16.654Z,76.93
2023-01-29T00:20:26.399Z,76.89
2023-01-29T00:20:36.383Z,76.89
2023-01-29T00:20:46.328Z,76.79
2023-01-29T00:20:56.307Z,76.72
2023-01-29T00:21:06.344Z,76.82
2023-01-29T00:21:16.304Z,76.79
2023-01-29T00:21:26.325Z,76.75
2023-01-29T00:21:36.323Z,76.72
2023-01-29T00:21:47.070Z,76.61
2023-01-29T00:21:56.319Z,76.68
2023-01-29T00:22:06.329Z,76.72
2023-01-29T00:22:16.292Z,76.75
2023-01-29T00:22:26.318Z,76.72
2023-01-29T00:22:36.294Z,76.82
2023-01-29T00:22:46.298Z,76.72
2023-01-29T00:22:56.313Z,76.68
2023-01-29T00:23:06.298Z,76.57
2023-01-29T00:23:16.431Z,76.68
2023-01-29T00:23:26.317Z,76.68
2023-01-29T00:23:36.287Z,76.79
2023-01-29T00:23:46.293Z,76.72
2023-01-29T00:23:56.347Z,76.82
2023-01-29T00:24:06.383Z,76.72
2023-01-29T00:24:16.422Z,76.61
2023-01-29T00:24:26.376Z,76.61
2023-01-29T00:24:37.083Z,76.61
2023-01-29T00:24:46.303Z,76.57
2023-01-29T00:24:56.324Z,76.61
2023-01-29T00:25:06.313Z,76.61
2023-01-29T00:25:16.311Z,76.61
2023-01-29T00:25:26.301Z,76.47
2023-01-29T00:25:36.315Z,76.51
2023-01-29T00:25:46.338Z,76.40
2023-01-29T00:25:56.285Z,76.40
2023-01-29T00:26:06.287Z,76.47
2023-01-29T00:26:16.305Z,76.47
2023-01-29T00:26:26.289Z,76.61
2023-01-29T00:26:36.291Z,76.61
2023-01-29T00:26:46.316Z,76.61
2023-01-29T00:26:56.282Z,76.57
2023-01-29T00:27:06.286Z,76.57
2023-01-29T00:27:16.322Z,76.57
2023-01-29T00:27:26.384Z,76.61
2023-01-29T00:27:36.487Z,76.47
2023-01-29T00:27:46.289Z,76.37
2023-01-29T00:27:56.348Z,76.47
2023-01-29T00:28:06.302Z,76.30
2023-01-29T00:28:16.310Z,76.43
2023-01-29T00:28:26.302Z,76.47
2023-01-29T00:28:36.289Z,76.40
2023-01-29T00:28:46.282Z,76.51
2023-01-29T00:28:56.269Z,76.47
2023-01-29T00:29:06.300Z,76.54
2023-01-29T00:29:16.306Z,76.51
2023-01-29T00:29:26.374Z,76.40
2023-01-29T00:29:37.047Z,76.51
2023-01-29T00:29:46.355Z,76.57
2023-01-29T00:29:56.283Z,76.51
2023-01-29T00:30:06.311Z,76.51
2023-01-29T00:30:16.698Z,76.47
2023-01-29T00:30:26.283Z,76.51
2023-01-29T00:30:36.324Z,76.61
2023-01-29T00:30:46.273Z,76.61
2023-01-29T00:30:56.484Z,76.54
2023-01-29T00:31:06.376Z,76.47
2023-01-29T00:31:16.376Z,76.54
2023-01-29T00:31:26.428Z,76.37
2023-01-29T00:31:37.134Z,76.43
2023-01-29T00:31:46.421Z,76.40
2023-01-29T00:31:56.409Z,76.40
2023-01-29T00:32:06.572Z,76.40
2023-01-29T00:32:16.470Z,76.40
2023-01-29T00:32:26.271Z,76.40
2023-01-29T00:32:36.307Z,76.37
2023-01-29T00:32:46.266Z,76.61
2023-01-29T00:32:56.264Z,76.72
2023-01-29T00:33:06.421Z,76.72
2023-01-29T00:33:16.264Z,76.82
2023-01-29T00:33:26.276Z,76.82
2023-01-29T00:33:36.256Z,76.79
2023-01-29T00:33:46.255Z,76.93
2023-01-29T00:33:56.299Z,76.96
2023-01-29T00:34:06.242Z,76.93
2023-01-29T00:34:16.251Z,77.00
2023-01-29T00:34:26.309Z,77.03
2023-01-29T00:34:36.243Z,77.00
2023-01-29T00:34:46.263Z,77.03
2023-01-29T00:34:56.246Z,76.79
2023-01-29T00:35:06.248Z,76.82
2023-01-29T00:35:16.267Z,76.82
2023-01-29T00:35:26.271Z,76.61
2023-01-29T00:35:36.258Z,76.65
2023-01-29T00:35:46.275Z,76.72
2023-01-29T00:35:56.287Z,76.72
2023-01-29T00:36:06.332Z,76.86
2023-01-29T00:36:16.298Z,76.82
2023-01-29T00:36:26.245Z,76.82
2023-01-29T00:36:36.299Z,76.82
2023-01-29T00:36:46.271Z,76.93
2023-01-29T00:36:56.233Z,77.00
2023-01-29T00:37:06.259Z,77.03
2023-01-29T00:37:16.348Z,76.93
2023-01-29T00:37:26.235Z,76.82
2023-01-29T00:37:36.252Z,76.93
2023-01-29T00:37:46.268Z,76.82
2023-01-29T00:37:56.228Z,76.86
2023-01-29T00:38:06.265Z,76.68
2023-01-29T00:38:16.242Z,76.57
2023-01-29T00:38:26.253Z,76.72
2023-01-29T00:38:36.265Z,76.72
2023-01-29T00:38:46.256Z,76.61
2023-01-29T00:38:56.231Z,76.51
2023-01-29T00:39:06.273Z,76.51
2023-01-29T00:39:16.242Z,76.40
2023-01-29T00:39:33.619Z,76.51
2023-01-29T00:39:47.041Z,76.54
2023-01-29T00:39:48.309Z,76.61
2023-01-29T00:39:56.232Z,76.72
2023-01-29T00:40:06.260Z,76.65
2023-01-29T00:40:16.624Z,76.43
2023-01-29T00:40:26.334Z,76.40
2023-01-29T00:40:36.237Z,76.30
2023-01-29T00:40:46.222Z,76.19
2023-01-29T00:40:56.246Z,76.30
2023-01-29T00:41:06.281Z,76.30
2023-01-29T00:41:16.624Z,76.33
2023-01-29T00:41:26.293Z,76.30
2023-01-29T00:41:36.295Z,76.43
2023-01-29T00:41:46.223Z,76.37
2023-01-29T00:41:57.080Z,76.57
2023-01-29T00:42:06.261Z,76.61
2023-01-29T00:42:16.211Z,76.61
2023-01-29T00:42:26.228Z,76.61
2023-01-29T00:42:36.218Z,76.72
2023-01-29T00:42:46.227Z,76.82
2023-01-29T00:42:56.242Z,76.86
2023-01-29T00:43:06.210Z,76.75
2023-01-29T00:43:16.219Z,76.61
2023-01-29T00:43:26.218Z,76.61
2023-01-29T00:43:36.321Z,76.61
2023-01-29T00:43:46.238Z,76.57
2023-01-29T00:43:56.251Z,76.61
2023-01-29T00:44:06.205Z,76.72
2023-01-29T00:44:16.464Z,76.72
2023-01-29T00:44:26.291Z,76.72
2023-01-29T00:44:36.236Z,76.75
2023-01-29T00:44:46.219Z,76.65
2023-01-29T00:44:56.213Z,76.72
2023-01-29T00:45:06.214Z,76.61
2023-01-29T00:45:16.213Z,76.75
2023-01-29T00:45:26.267Z,76.72
2023-01-29T00:45:37.045Z,76.72
2023-01-29T00:45:46.390Z,76.86
2023-01-29T00:45:57.097Z,76.82
2023-01-29T00:46:06.209Z,76.89
2023-01-29T00:46:16.432Z,76.93
2023-01-29T00:46:26.315Z,76.93
2023-01-29T00:46:36.238Z,76.96
2023-01-29T00:46:46.305Z,77.03
2023-01-29T00:46:56.271Z,76.96
2023-01-29T00:47:06.412Z,77.10
2023-01-29T00:47:16.228Z,77.03
2023-01-29T00:47:26.200Z,77.07
2023-01-29T00:47:36.215Z,77.03
2023-01-29T00:47:46.233Z,77.03
2023-01-29T00:47:56.205Z,77.03
2023-01-29T00:48:06.236Z,76.93
2023-01-29T00:48:16.222Z,76.93
2023-01-29T00:48:26.273Z,76.86
2023-01-29T00:48:36.243Z,76.72
2023-01-29T00:48:46.211Z,76.79
2023-01-29T00:48:56.206Z,76.86
2023-01-29T00:49:06.209Z,76.96
2023-01-29T00:49:16.197Z,76.93
2023-01-29T00:49:26.206Z,76.96
2023-01-29T00:49:36.185Z,76.86
2023-01-29T00:49:46.189Z,76.82
2023-01-29T00:49:56.188Z,76.93
2023-01-29T00:50:06.190Z,76.93
2023-01-29T00:50:16.701Z,77.07
2023-01-29T00:50:26.184Z,77.07
2023-01-29T00:50:36.195Z,77.17
2023-01-29T00:50:46.186Z,77.07
2023-01-29T00:50:56.189Z,77.17
2023-01-29T00:51:06.212Z,77.03
2023-01-29T00:51:16.190Z,76.93
2023-01-29T00:51:26.186Z,76.93
2023-01-29T00:51:36.260Z,76.72
2023-01-29T00:51:46.195Z,76.68
2023-01-29T00:51:56.268Z,76.61
2023-01-29T00:52:06.196Z,76.51
2023-01-29T00:52:16.186Z,76.30
2023-01-29T00:52:26.197Z,76.23
2023-01-29T00:52:37.065Z,76.33
2023-01-29T00:52:47.052Z,76.43
2023-01-29T00:52:56.181Z,76.51
2023-01-29T00:53:06.217Z,76.65
2023-01-29T00:53:16.247Z,76.51
2023-01-29T00:53:26.179Z,76.51
2023-01-29T00:53:36.174Z,76.40
2023-01-29T00:53:46.278Z,76.54
2023-01-29T00:53:56.210Z,76.75
2023-01-29T00:54:06.175Z,76.75
2023-01-29T00:54:16.170Z,76.72
2023-01-29T00:54:26.187Z,76.72
2023-01-29T00:54:36.184Z,76.51
2023-01-29T00:54:46.183Z,76.33
2023-01-29T00:54:56.195Z,76.19
2023-01-29T00:55:06.197Z,76.09
2023-01-29T00:55:16.192Z,76.09
2023-01-29T00:55:26.216Z,76.23
2023-01-29T00:55:36.170Z,76.19
2023-01-29T00:55:46.160Z,76.30
2023-01-29T00:55:56.158Z,76.40
2023-01-29T00:56:06.163Z,76.40
2023-01-29T00:56:16.170Z,76.40
2023-01-29T00:56:26.162Z,76.30
2023-01-29T00:56:36.174Z,76.30
2023-01-29T00:56:46.251Z,76.30
2023-01-29T00:56:56.156Z,76.54
2023-01-29T00:57:06.174Z,76.54
2023-01-29T00:57:16.167Z,76.57
2023-01-29T00:57:26.151Z,76.61
2023-01-29T00:57:37.141Z,76.65
2023-01-29T00:57:46.163Z,76.75
2023-01-29T00:57:56.169Z,76.61
2023-01-29T00:58:06.163Z,76.51
2023-01-29T00:58:16.149Z,76.40
2023-01-29T00:58:26.158Z,76.12
2023-01-29T00:58:36.170Z,75.88
2023-01-29T00:58:46.279Z,75.67
2023-01-29T00:58:56.179Z,75.56
2023-01-29T00:59:06.146Z,75.67
2023-01-29T00:59:16.155Z,75.78
2023-01-29T00:59:26.147Z,75.92
2023-01-29T00:59:36.216Z,75.98
2023-01-29T00:59:46.157Z,76.16
2023-01-29T00:59:56.157Z,76.12
2023-01-29T01:00:06.166Z,76.09
2023-01-29T01:00:16.484Z,76.09
2023-01-29T01:00:26.172Z,76.19
2023-01-29T01:00:36.173Z,76.26
2023-01-29T01:00:46.162Z,76.30
2023-01-29T01:00:56.231Z,76.30
2023-01-29T01:01:06.200Z,76.51
2023-01-29T01:01:16.223Z,76.51
2023-01-29T01:01:26.156Z,76.61
2023-01-29T01:01:36.158Z,76.72
2023-01-29T01:01:46.175Z,76.72
2023-01-29T01:01:56.291Z,76.51
2023-01-29T01:02:06.203Z,76.40
2023-01-29T01:02:16.240Z,76.09
2023-01-29T01:02:26.138Z,76.12
2023-01-29T01:02:36.182Z,76.23
2023-01-29T01:02:46.142Z,76.09
2023-01-29T01:02:56.144Z,76.02
2023-01-29T01:03:06.231Z,75.98
2023-01-29T01:03:16.160Z,76.23
2023-01-29T01:03:26.144Z,76.30
2023-01-29T01:03:36.170Z,76.30
2023-01-29T01:03:46.145Z,76.43
2023-01-29T01:03:56.147Z,76.40
2023-01-29T01:04:06.143Z,76.40
2023-01-29T01:04:16.134Z,76.43
2023-01-29T01:04:26.144Z,76.40
2023-01-29T01:04:36.125Z,76.30
2023-01-29T01:04:46.122Z,76.30
2023-01-29T01:04:56.121Z,76.30
2023-01-29T01:05:06.207Z,76.30
2023-01-29T01:05:16.120Z,76.33
2023-01-29T01:05:26.124Z,76.26
2023-01-29T01:05:36.141Z,76.23
2023-01-29T01:05:46.170Z,76.09
2023-01-29T01:05:56.128Z,75.98
2023-01-29T01:06:06.129Z,75.98
2023-01-29T01:06:16.156Z,75.98
2023-01-29T01:06:26.121Z,75.95
2023-01-29T01:06:36.190Z,76.02
2023-01-29T01:06:46.150Z,76.06
2023-01-29T01:06:56.115Z,76.16
2023-01-29T01:07:06.178Z,76.09
2023-01-29T01:07:16.125Z,76.19
2023-01-29T01:07:26.137Z,76.19
2023-01-29T01:07:37.056Z,76.09
2023-01-29T01:07:46.121Z,76.19
2023-01-29T01:07:56.141Z,76.19
2023-01-29T01:08:06.110Z,76.19
2023-01-29T01:08:16.110Z,76.30
2023-01-29T01:08:27.064Z,76.26
2023-01-29T01:08:36.110Z,76.40
2023-01-29T01:08:46.122Z,76.40
2023-01-29T01:08:56.111Z,76.37
2023-01-29T01:09:07.084Z,76.40
2023-01-29T01:09:16.124Z,76.40
2023-01-29T01:09:26.112Z,76.40
2023-01-29T01:09:36.121Z,76.51
2023-01-29T01:09:46.114Z,76.51
2023-01-29T01:09:56.122Z,76.47
2023-01-29T01:10:06.113Z,76.51
2023-01-29T01:10:16.398Z,76.51
2023-01-29T01:10:26.103Z,76.51
2023-01-29T01:10:36.126Z,76.51
2023-01-29T01:10:47.077Z,76.51
2023-01-29T01:10:56.098Z,76.40
2023-01-29T01:11:06.117Z,76.40
2023-01-29T01:11:16.165Z,76.51
2023-01-29T01:11:27.083Z,76.40
2023-01-29T01:11:36.110Z,76.40
2023-01-29T01:11:46.098Z,76.51
2023-01-29T01:11:56.122Z,76.40
2023-01-29T01:12:07.158Z,76.40
2023-01-29T01:12:16.200Z,76.40
2023-01-29T01:12:26.104Z,76.19
2023-01-29T01:12:36.141Z,76.19
2023-01-29T01:12:46.105Z,76.30
2023-01-29T01:12:56.144Z,76.23
2023-01-29T01:13:06.089Z,76.19
2023-01-29T01:13:16.107Z,76.33
2023-01-29T01:13:26.114Z,76.26
2023-01-29T01:13:36.094Z,76.30
2023-01-29T01:13:46.104Z,76.30
2023-01-29T01:13:56.157Z,76.30
2023-01-29T01:14:06.090Z,76.23
2023-01-29T01:14:16.084Z,76.09
2023-01-29T01:14:26.098Z,76.02
2023-01-29T01:14:36.180Z,75.92
2023-01-29T01:14:46.118Z,75.84
2023-01-29T01:14:56.182Z,75.98
2023-01-29T01:15:06.083Z,76.02
2023-01-29T01:15:16.106Z,76.12
2023-01-29T01:15:26.079Z,76.09
2023-01-29T01:15:36.094Z,76.09
2023-01-29T01:15:47.080Z,76.09
2023-01-29T01:15:56.098Z,75.98
2023-01-29T01:16:06.137Z,75.98
2023-01-29T01:16:16.143Z,75.78
2023-01-29T01:16:26.263Z,75.63
2023-01-29T01:16:36.128Z,75.70
2023-01-29T01:16:46.087Z,75.81
2023-01-29T01:16:56.076Z,75.81
2023-01-29T01:17:06.091Z,75.78
2023-01-29T01:17:16.112Z,75.78
2023-01-29T01:17:26.156Z,75.74
2023-01-29T01:17:37.132Z,75.78
2023-01-29T01:17:46.163Z,75.74
2023-01-29T01:17:56.149Z,75.67
2023-01-29T01:18:06.198Z,75.63
2023-01-29T01:18:16.078Z,75.78
2023-01-29T01:18:26.088Z,75.74
2023-01-29T01:18:36.077Z,75.78
2023-01-29T01:18:46.066Z,75.67
2023-01-29T01:18:56.068Z,75.78
2023-01-29T01:19:06.095Z,75.67
2023-01-29T01:19:16.068Z,75.53
2023-01-29T01:19:26.076Z,75.63
2023-01-29T01:19:36.089Z,75.56
2023-01-29T01:19:46.070Z,75.70
2023-01-29T01:19:56.091Z,75.67
2023-01-29T01:20:06.084Z,75.56
2023-01-29T01:20:16.369Z,75.56
2023-01-29T01:20:26.063Z,75.46
2023-01-29T01:20:36.171Z,75.49
2023-01-29T01:20:46.096Z,75.46
2023-01-29T01:20:56.058Z,75.46
2023-01-29T01:21:06.082Z,75.53
2023-01-29T01:21:16.066Z,75.46
2023-01-29T01:21:27.075Z,75.46
2023-01-29T01:21:36.076Z,75.43
2023-01-29T01:21:46.070Z,75.49
2023-01-29T01:21:56.107Z,75.49
2023-01-29T01:22:06.052Z,75.60
2023-01-29T01:22:16.061Z,75.56
2023-01-29T01:22:26.071Z,75.67
2023-01-29T01:22:36.143Z,75.67
2023-01-29T01:22:46.081Z,75.67
2023-01-29T01:22:56.048Z,75.67
2023-01-29T01:23:06.053Z,75.60
2023-01-29T01:23:16.089Z,75.56
2023-01-29T01:23:26.053Z,75.56
2023-01-29T01:23:36.062Z,75.53
2023-01-29T01:23:46.058Z,75.63
2023-01-29T01:23:56.174Z,75.70
2023-01-29T01:24:06.106Z,75.81
2023-01-29T01:24:16.076Z,75.81
2023-01-29T01:24:26.090Z,75.88
2023-01-29T01:24:36.069Z,75.88
2023-01-29T01:24:46.098Z,75.74
2023-01-29T01:24:56.052Z,76.02
2023-01-29T01:25:06.048Z,75.88
2023-01-29T01:25:16.059Z,75.98
2023-01-29T01:25:26.065Z,76.02
2023-01-29T01:25:36.062Z,75.98
2023-01-29T01:25:46.044Z,76.02
2023-01-29T01:25:56.100Z,76.12
2023-01-29T01:26:06.152Z,76.02
2023-01-29T01:26:16.044Z,75.92
2023-01-29T01:26:26.044Z,75.81
2023-01-29T01:26:36.059Z,75.78
2023-01-29T01:26:46.036Z,75.92
2023-01-29T01:26:56.055Z,76.02
2023-01-29T01:27:06.039Z,76.02
2023-01-29T01:27:16.072Z,76.02
2023-01-29T01:27:26.049Z,76.09
2023-01-29T01:27:36.052Z,76.12
2023-01-29T01:27:46.090Z,75.95
2023-01-29T01:27:56.037Z,76.23
2023-01-29T01:28:06.053Z,76.19
2023-01-29T01:28:16.040Z,76.09
2023-01-29T01:28:26.060Z,76.23
2023-01-29T01:28:36.584Z,76.09
2023-01-29T01:28:46.024Z,76.12
2023-01-29T01:28:56.062Z,76.02
2023-01-29T01:29:06.028Z,76.02
2023-01-29T01:29:16.027Z,76.09
2023-01-29T01:29:26.041Z,75.98
2023-01-29T01:29:36.043Z,76.12
2023-01-29T01:29:46.113Z,76.09
2023-01-29T01:29:56.021Z,76.19
2023-01-29T01:30:06.043Z,76.19
2023-01-29T01:30:16.573Z,76.30
2023-01-29T01:30:26.039Z,76.23
2023-01-29T01:30:36.036Z,76.33
2023-01-29T01:30:46.067Z,76.30
2023-01-29T01:30:56.106Z,76.23
2023-01-29T01:31:06.118Z,76.33
2023-01-29T01:31:16.089Z,76.09
2023-01-29T01:31:26.164Z,76.19
2023-01-29T01:31:36.101Z,76.23
2023-01-29T01:31:46.152Z,76.19
2023-01-29T01:31:56.105Z,76.19
2023-01-29T01:32:06.101Z,76.19
2023-01-29T01:32:16.027Z,76.09
2023-01-29T01:32:26.034Z,76.12
2023-01-29T01:32:36.014Z,76.12
2023-01-29T01:32:46.042Z,76.23
2023-01-29T01:32:56.117Z,76.23
2023-01-29T01:33:06.073Z,76.33
2023-01-29T01:33:16.011Z,76.33
2023-01-29T01:33:26.011Z,76.30
2023-01-29T01:33:36.057Z,76.40
2023-01-29T01:33:46.035Z,76.43
2023-01-29T01:33:56.021Z,76.54
2023-01-29T01:34:06.008Z,76.40
2023-01-29T01:34:16.008Z,76.40
2023-01-29T01:34:26.002Z,76.54
2023-01-29T01:34:36.022Z,76.51
2023-01-29T01:34:46.032Z,76.51
2023-01-29T01:34:56.004Z,76.54
2023-01-29T01:35:06.014Z,76.54
2023-01-29T01:35:16.610Z,76.61
2023-01-29T01:35:26.020Z,76.54
2023-01-29T01:35:36.006Z,76.47
2023-01-29T01:35:46.026Z,76.51
2023-01-29T01:35:56.015Z,76.47
2023-01-29T01:36:06.008Z,76.51
2023-01-29T01:36:16.562Z,76.51
2023-01-29T01:36:26.001Z,76.54
2023-01-29T01:36:36.032Z,76.54
2023-01-29T01:36:45.995Z,76.65
2023-01-29T01:36:56.013Z,76.61
2023-01-29T01:37:06.004Z,76.61
2023-01-29T01:37:15.994Z,76.61
2023-01-29T01:37:25.988Z,76.61
2023-01-29T01:37:36.002Z,76.54
2023-01-29T01:37:46.013Z,76.51
2023-01-29T01:37:55.995Z,76.37
2023-01-29T01:38:06.068Z,76.54
2023-01-29T01:38:16.005Z,76.30
2023-01-29T01:38:26.014Z,76.23
2023-01-29T01:38:36.007Z,76.02
2023-01-29T01:38:46.060Z,75.98
2023-01-29T01:38:55.996Z,75.88
2023-01-29T01:39:05.984Z,76.02
2023-01-29T01:39:16.000Z,75.98
2023-01-29T01:39:26.017Z,75.92
2023-01-29T01:39:35.991Z,75.88
2023-01-29T01:39:45.981Z,75.92
2023-01-29T01:39:55.999Z,75.92
2023-01-29T01:40:06.579Z,75.98
2023-01-29T01:40:16.287Z,76.02
2023-01-29T01:40:26.012Z,76.12
2023-01-29T01:40:36.018Z,76.23
2023-01-29T01:40:45.991Z,76.19
2023-01-29T01:40:55.986Z,76.30
2023-01-29T01:41:05.984Z,76.40
2023-01-29T01:41:15.986Z,76.47
2023-01-29T01:41:26.552Z,76.40
2023-01-29T01:41:35.981Z,76.37
2023-01-29T01:41:45.986Z,76.26
2023-01-29T01:41:55.991Z,76.30
2023-01-29T01:42:05.996Z,76.23
2023-01-29T01:42:15.994Z,76.30
2023-01-29T01:42:25.989Z,76.30
2023-01-29T01:42:35.975Z,76.33
2023-01-29T01:42:45.990Z,76.30
2023-01-29T01:42:56.163Z,76.30
2023-01-29T01:43:05.970Z,76.19
2023-01-29T01:43:16.026Z,76.23
2023-01-29T01:43:26.025Z,76.30
2023-01-29T01:43:35.969Z,76.33
2023-01-29T01:43:45.969Z,76.30
2023-01-29T01:43:55.965Z,76.30
2023-01-29T01:44:05.971Z,76.30
2023-01-29T01:44:15.979Z,76.43
2023-01-29T01:44:25.977Z,76.40
2023-01-29T01:44:36.645Z,76.54
2023-01-29T01:44:45.962Z,76.51
2023-01-29T01:44:55.958Z,76.40
2023-01-29T01:45:06.028Z,76.40
2023-01-29T01:45:15.960Z,76.40
2023-01-29T01:45:26.138Z,76.43
2023-01-29T01:45:36.077Z,76.40
2023-01-29T01:45:46.092Z,76.33
2023-01-29T01:45:56.017Z,76.40
2023-01-29T01:46:06.008Z,76.43
2023-01-29T01:46:15.964Z,76.40
2023-01-29T01:46:25.960Z,76.51
2023-01-29T01:46:35.998Z,76.43
2023-01-29T01:46:45.960Z,76.40
2023-01-29T01:46:55.957Z,76.54
2023-01-29T01:47:06.021Z,76.54
2023-01-29T01:47:15.994Z,76.61
2023-01-29T01:47:25.958Z,76.61
2023-01-29T01:47:35.946Z,76.51
2023-01-29T01:47:45.955Z,76.51
2023-01-29T01:47:55.968Z,76.51
2023-01-29T01:48:05.992Z,76.51
2023-01-29T01:48:15.956Z,76.51
2023-01-29T01:48:26.025Z,76.51
2023-01-29T01:48:35.952Z,76.40
2023-01-29T01:48:45.960Z,76.43
2023-01-29T01:48:55.977Z,76.30
2023-01-29T01:49:05.963Z,76.43
2023-01-29T01:49:15.959Z,76.30
2023-01-29T01:49:25.949Z,76.30
2023-01-29T01:49:35.941Z,76.40
2023-01-29T01:49:45.946Z,76.33
2023-01-29T01:49:56.011Z,76.40
2023-01-29T01:50:05.966Z,76.43
2023-01-29T01:50:16.327Z,76.40
2023-01-29T01:50:26.005Z,76.40
2023-01-29T01:50:35.971Z,76.40
2023-01-29T01:50:45.952Z,76.51
2023-01-29T01:50:55.970Z,76.43
2023-01-29T01:51:05.942Z,76.61
2023-01-29T01:51:16.010Z,76.51
2023-01-29T01:51:25.941Z,76.51
2023-01-29T01:51:35.949Z,76.51
2023-01-29T01:51:45.968Z,76.65
2023-01-29T01:51:55.940Z,76.51
2023-01-29T01:52:05.958Z,76.61
2023-01-29T01:52:15.953Z,76.75
2023-01-29T01:52:25.929Z,76.65
2023-01-29T01:52:35.952Z,76.54
2023-01-29T01:52:46.181Z,76.51
2023-01-29T01:52:55.928Z,76.51
2023-01-29T01:53:05.949Z,76.51
2023-01-29T01:53:15.926Z,76.65
2023-01-29T01:53:25.931Z,76.54
2023-01-29T01:53:35.971Z,76.65
2023-01-29T01:53:45.935Z,76.61
2023-01-29T01:53:55.930Z,76.75
2023-01-29T01:54:06.564Z,76.75
2023-01-29T01:54:15.924Z,76.93
2023-01-29T01:54:25.931Z,76.96
2023-01-29T01:54:35.931Z,76.93
2023-01-29T01:54:45.927Z,76.93
2023-01-29T01:54:55.932Z,76.93
2023-01-29T01:55:05.945Z,76.93
2023-01-29T01:55:15.924Z,76.93
2023-01-29T01:55:25.945Z,77.03
2023-01-29T01:55:35.933Z,77.03
2023-01-29T01:55:45.930Z,77.03
2023-01-29T01:55:55.914Z,77.07
2023-01-29T01:56:06.042Z,77.07
2023-01-29T01:56:15.917Z,77.03
2023-01-29T01:56:25.920Z,76.93
2023-01-29T01:56:35.913Z,76.96
2023-01-29T01:56:45.913Z,76.86
2023-01-29T01:56:56.012Z,76.82
2023-01-29T01:57:05.913Z,76.75
2023-01-29T01:57:16.030Z,76.86
2023-01-29T01:57:25.933Z,76.86
2023-01-29T01:57:35.912Z,76.93
2023-01-29T01:57:45.925Z,77.07
2023-01-29T01:57:55.933Z,77.03
2023-01-29T01:58:05.917Z,77.14
2023-01-29T01:58:15.930Z,77.14
2023-01-29T01:58:25.946Z,77.17
2023-01-29T01:58:35.923Z,77.17
2023-01-29T01:58:45.959Z,77.28
2023-01-29T01:58:55.930Z,77.17
2023-01-29T01:59:05.921Z,77.28
2023-01-29T01:59:15.925Z,77.28
2023-01-29T01:59:25.934Z,77.17
2023-01-29T01:59:35.903Z,77.20
2023-01-29T01:59:46.000Z,77.28
2023-01-29T01:59:55.942Z,77.24
2023-01-29T02:00:05.923Z,77.28
2023-01-29T02:00:16.203Z,77.24
2023-01-29T02:00:25.903Z,77.28
2023-01-29T02:00:35.904Z,77.38
2023-01-29T02:00:45.956Z,77.38
2023-01-29T02:00:55.962Z,77.34
2023-01-29T02:01:06.759Z,77.48
2023-01-29T02:01:15.975Z,77.34
2023-01-29T02:01:26.005Z,77.34
2023-01-29T02:01:35.914Z,77.34
2023-01-29T02:01:45.919Z,77.28
2023-01-29T02:01:55.960Z,77.24
2023-01-29T02:02:05.921Z,77.38
2023-01-29T02:02:15.983Z,77.28
2023-01-29T02:02:25.988Z,77.28
2023-01-29T02:02:35.891Z,77.17
2023-01-29T02:02:45.915Z,77.24
2023-01-29T02:02:55.887Z,77.28
2023-01-29T02:03:05.907Z,77.24
2023-01-29T02:03:15.917Z,77.34
2023-01-29T02:03:25.897Z,77.24
2023-01-29T02:03:35.895Z,77.28
2023-01-29T02:03:45.883Z,77.24
2023-01-29T02:03:55.970Z,77.34
2023-01-29T02:04:05.917Z,77.38
2023-01-29T02:04:15.879Z,77.38
2023-01-29T02:04:25.913Z,77.48
2023-01-29T02:04:36.569Z,77.59
2023-01-29T02:04:45.944Z,77.56
2023-01-29T02:04:55.877Z,77.48
2023-01-29T02:05:06.048Z,77.45
2023-01-29T02:05:15.880Z,77.48
2023-01-29T02:05:25.924Z,77.45
2023-01-29T02:05:35.899Z,77.45
2023-01-29T02:05:45.873Z,77.38
2023-01-29T02:05:55.972Z,77.34
2023-01-29T02:06:05.974Z,77.24
2023-01-29T02:06:18.591Z,77.38
2023-01-29T02:06:25.885Z,77.34
2023-01-29T02:06:35.874Z,77.45
2023-01-29T02:06:46.034Z,77.34
2023-01-29T02:06:55.909Z,77.45
2023-01-29T02:07:05.935Z,77.48
2023-01-29T02:07:15.875Z,77.42
2023-01-29T02:07:25.890Z,77.45
2023-01-29T02:07:35.864Z,77.48
2023-01-29T02:07:45.884Z,77.45
2023-01-29T02:07:55.887Z,77.38
2023-01-29T02:08:05.908Z,77.34
2023-01-29T02:08:15.865Z,77.34
2023-01-29T02:08:25.867Z,77.31
2023-01-29T02:08:35.865Z,77.28
2023-01-29T02:08:45.874Z,77.38